Terminal Aerodrome Forecast
Issued by NWS

Home | Current Version | Previous Version | Graphics & Text | Print | Product List | Glossary On
Versions: 1 2 3 4 5 6 7 8 9 10 11 12 13 14 15 16 17 18 19
000
FTUS43 KGRB 271126
TAFAUW
TAF
KAUW 271126Z 2712/2812 VRB03KT P6SM SCT025 BKN060
      TEMPO 2712/2714 -SN BKN025
     FM271400 16005KT P6SM SCT060
     FM271800 19007KT P6SM FEW100
     FM280100 16005KT P6SM BKN090
     FM280700 15006KT P6SM OVC025
     FM281000 14007KT 6SM -RA BR OVC008 WS020/21035KT=

USA.gov is the U.S. government's official web portal to all federal, state and local government web resources and services.